Time;durP1;ratioP1;P1;durP2;ratioP2;P2;SDS_P1;SDS_P2;PMS_P1;PMS_P2;Temp;Humidity;BMP_temperature;BMP_pressure;BME280_temperature;BME280_humidity;BME280_pressure;Samples;Min_cycle;Max_cycle;Signal;HPM_P1;HPM_P2
2022/01/21 00:00:17;;;;;;;1.63;1.33;;;22.50;45.00;;;;;;5033213;28;20215;-70
2022/01/21 00:02:43;;;;;;;1.67;1.30;;;22.50;45.00;;;;;;5032880;28;20552;-70
2022/01/21 00:05:10;;;;;;;2.22;1.42;;;22.50;45.00;;;;;;5032587;28;20183;-70
2022/01/21 00:07:36;;;;;;;2.63;1.55;;;22.50;45.00;;;;;;5016026;28;20310;-70
2022/01/21 00:10:07;;;;;;;1.88;1.40;;;22.50;45.00;;;;;;5016392;28;20262;-70
2022/01/21 00:12:35;;;;;;;2.97;1.40;;;22.50;45.00;;;;;;5032667;28;20179;-70
2022/01/21 00:15:02;;;;;;;1.50;1.40;;;22.50;45.00;;;;;;5016293;28;20672;-70
2022/01/21 00:17:28;;;;;;;2.15;1.63;;;22.50;45.00;;;;;;5033737;28;20203;-70
2022/01/21 00:30:07;;;;;;;1.33;1.13;;;22.50;45.30;;;;;;5015994;28;20179;-70
2022/01/21 00:30:52;;;;;;;2.88;1.35;;;22.50;44.90;;;;;;5013641;28;20588;-70
2022/01/21 00:33:18;;;;;;;2.22;1.30;;;22.50;45.00;;;;;;4996210;28;20181;-70
2022/01/21 00:35:44;;;;;;;1.83;1.52;;;22.50;45.00;;;;;;5012607;28;20188;-70
2022/01/21 00:38:10;;;;;;;2.13;1.52;;;22.50;45.00;;;;;;4996025;28;20307;-69
2022/01/21 00:40:36;;;;;;;1.65;1.50;;;22.60;45.10;;;;;;4996126;28;20275;-70
2022/01/21 00:43:44;;;;;;;1.38;1.17;;;22.60;45.10;;;;;;5012191;28;20190;-70
2022/01/21 00:45:52;;;;;;;1.30;1.08;;;22.60;45.10;;;;;;5003780;28;20250;-70
2022/01/21 00:48:18;;;;;;;1.40;1.20;;;22.50;45.00;;;;;;5015248;28;20702;-70
2022/01/21 00:50:44;;;;;;;1.38;1.27;;;22.50;45.70;;;;;;5031866;28;20187;-70
2022/01/21 00:53:10;;;;;;;1.55;1.10;;;22.50;45.00;;;;;;5032026;28;20172;-70
2022/01/21 00:55:35;;;;;;;1.63;1.17;;;22.50;45.00;;;;;;5015239;28;20194;-70
2022/01/21 00:58:01;;;;;;;1.98;1.15;;;22.50;45.00;;;;;;5032009;28;20234;-70
2022/01/21 01:00:28;;;;;;;1.35;1.02;;;22.50;45.00;;;;;;5031753;28;20195;-70
2022/01/21 01:02:54;;;;;;;1.95;1.30;;;22.50;45.00;;;;;;5031675;28;20187;-70
2022/01/21 01:05:20;;;;;;;1.80;1.30;;;22.60;45.10;;;;;;5031565;28;20262;-70
2022/01/21 01:07:46;;;;;;;0.80;0.80;;;22.50;45.10;;;;;;5031453;28;20222;-70
2022/01/21 01:10:18;;;;;;;1.30;1.20;;;22.50;45.10;;;;;;5031619;28;20163;-69
2022/01/21 01:12:59;;;;;;;1.35;1.10;;;22.60;45.20;;;;;;5031941;28;20178;-70
2022/01/21 01:20:54;;;;;;;1.77;1.23;;;22.60;45.20;;;;;;5028419;28;20207;-69
2022/01/21 01:23:49;;;;;;;1.08;0.98;;;22.60;45.20;;;;;;5012888;28;20183;-70
2022/01/21 01:28:56;;;;;;;1.40;1.00;;;22.60;45.20;;;;;;5027730;28;20248;-70
2022/01/21 01:31:22;;;;;;;1.20;0.98;;;22.60;45.10;;;;;;5031158;28;20190;-70
2022/01/21 01:33:48;;;;;;;1.60;1.10;;;22.50;45.00;;;;;;5031601;28;20179;-70
2022/01/21 01:36:13;;;;;;;2.20;1.13;;;22.60;45.20;;;;;;5030978;28;20230;-70
2022/01/21 01:41:14;;;;;;;1.35;1.15;;;22.60;45.20;;;;;;5031233;28;20179;-70
2022/01/21 01:51:56;;;;;;;1.10;1.00;;;22.50;45.20;;;;;;5031263;28;20194;-70
2022/01/21 01:54:22;;;;;;;1.52;1.15;;;22.50;45.00;;;;;;5032546;28;20183;-70
2022/01/21 01:56:54;;;;;;;1.88;1.10;;;22.50;45.10;;;;;;5018251;28;20199;-70
2022/01/21 01:59:19;;;;;;;1.10;0.85;;;22.50;45.10;;;;;;5034984;28;20190;-70
2022/01/21 02:02:12;;;;;;;1.63;1.30;;;22.50;45.00;;;;;;5035268;28;20175;-70
2022/01/21 02:04:39;;;;;;;1.92;1.00;;;22.50;45.20;;;;;;5052072;28;20186;-69
2022/01/21 02:07:06;;;;;;;2.80;1.33;;;22.50;45.10;;;;;;5035332;28;20199;-70
2022/01/21 02:09:32;;;;;;;1.92;1.30;;;22.50;45.10;;;;;;5019212;28;20219;-70
2022/01/21 02:11:59;;;;;;;1.67;1.20;;;22.50;45.00;;;;;;5018549;28;20670;-70
2022/01/21 02:14:33;;;;;;;1.65;1.10;;;22.60;45.10;;;;;;5035140;28;20229;-70
2022/01/21 02:22:22;;;;;;;1.42;1.10;;;22.50;45.00;;;;;;5035277;28;20175;-70
2022/01/21 02:24:55;;;;;;;1.00;0.90;;;22.50;45.00;;;;;;5034994;28;20229;-70
2022/01/21 02:27:21;;;;;;;2.30;1.27;;;22.60;45.00;;;;;;5018295;28;20215;-70
2022/01/21 02:29:54;;;;;;;1.63;1.00;;;22.50;45.00;;;;;;5034924;28;20179;-70
2022/01/21 02:32:21;;;;;;;1.48;1.10;;;22.50;45.00;;;;;;5018579;28;20168;-70
2022/01/21 02:34:48;;;;;;;1.17;1.00;;;22.50;45.00;;;;;;5034649;28;20236;-70
2022/01/21 02:37:18;;;;;;;1.20;1.10;;;22.50;45.00;;;;;;5034894;28;20211;-70
2022/01/21 02:39:44;;;;;;;2.28;1.25;;;22.50;45.00;;;;;;5035148;28;20199;-70
2022/01/21 02:42:10;;;;;;;2.25;1.42;;;22.60;45.10;;;;;;5034687;28;20194;-70
2022/01/21 02:44:37;;;;;;;1.20;1.10;;;22.50;45.00;;;;;;5017736;28;20171;-70
2022/01/21 02:47:05;;;;;;;1.33;1.17;;;22.50;45.00;;;;;;5018470;28;20223;-70
2022/01/21 02:49:36;;;;;;;1.75;1.20;;;22.50;45.00;;;;;;5019420;28;20183;-70
2022/01/21 02:52:04;;;;;;;1.63;1.02;;;22.50;45.00;;;;;;5018773;28;20183;-70
2022/01/21 02:54:34;;;;;;;1.00;0.90;;;22.50;45.00;;;;;;5035030;28;20222;-70
2022/01/21 02:57:03;;;;;;;1.25;1.10;;;22.50;45.00;;;;;;5033967;28;20232;-70
2022/01/21 02:59:29;;;;;;;1.13;0.90;;;22.50;45.00;;;;;;5026793;28;20183;-68
2022/01/21 03:01:55;;;;;;;2.28;1.02;;;22.60;45.10;;;;;;5018625;28;20180;-70
2022/01/21 03:04:38;;;;;;;1.58;0.90;;;22.50;45.60;;;;;;5034495;28;20206;-69
2022/01/21 03:07:05;;;;;;;0.93;0.93;;;22.50;45.00;;;;;;5033733;28;20298;-70
2022/01/21 03:09:31;;;;;;;1.80;1.10;;;22.50;45.00;;;;;;5034730;28;20180;-70
2022/01/21 03:11:57;;;;;;;1.80;1.10;;;22.50;44.90;;;;;;5034476;28;20180;-70
2022/01/21 03:14:23;;;;;;;1.30;1.20;;;22.50;44.90;;;;;;5035117;28;20187;-71
2022/01/21 03:16:49;;;;;;;1.58;1.25;;;22.50;44.90;;;;;;5017500;28;20203;-70
2022/01/21 03:19:14;;;;;;;1.25;1.15;;;22.50;45.00;;;;;;5026056;28;20191;-70
2022/01/21 03:21:40;;;;;;;1.55;1.05;;;22.60;45.00;;;;;;5034532;28;20180;-70
2022/01/21 03:24:07;;;;;;;1.73;1.25;;;22.50;45.00;;;;;;5034196;28;20191;-70
2022/01/21 03:26:35;;;;;;;1.55;1.17;;;22.50;45.00;;;;;;5032768;28;20290;-70
2022/01/21 03:29:03;;;;;;;1.73;1.20;;;22.50;45.00;;;;;;5016901;28;20290;-69
2022/01/21 03:31:34;;;;;;;1.00;0.90;;;22.50;44.90;;;;;;5018339;28;20654;-70
2022/01/21 03:34:03;;;;;;;1.92;1.02;;;22.60;45.00;;;;;;5017512;28;20175;-70
2022/01/21 03:36:31;;;;;;;1.52;1.00;;;22.50;45.00;;;;;;5017601;28;20211;-70
2022/01/21 03:38:58;;;;;;;1.33;0.93;;;22.50;45.00;;;;;;5063914;22;20237;-69
2022/01/21 03:41:24;;;;;;;1.73;1.10;;;22.50;44.90;;;;;;5055548;28;20182;-69
2022/01/21 03:43:50;;;;;;;1.80;1.23;;;22.50;44.90;;;;;;5055342;28;20174;-69
2022/01/21 03:46:17;;;;;;;1.23;0.80;;;22.50;45.50;;;;;;5055794;28;20177;-69
2022/01/21 03:48:47;;;;;;;1.65;1.00;;;22.50;44.90;;;;;;5040991;28;20218;-68
2022/01/21 03:51:16;;;;;;;1.17;1.05;;;22.50;44.90;;;;;;5019575;28;20189;-69
2022/01/21 03:53:43;;;;;;;2.28;1.08;;;22.50;44.90;;;;;;5035724;28;20261;-69
2022/01/21 03:56:09;;;;;;;1.42;1.20;;;22.50;44.90;;;;;;5035551;28;20236;-69
2022/01/21 03:58:34;;;;;;;1.10;1.00;;;22.50;44.90;;;;;;5036017;28;20218;-69
2022/01/21 04:01:02;;;;;;;1.60;1.00;;;22.50;44.90;;;;;;5035726;28;20233;-69
2022/01/21 04:03:30;;;;;;;1.70;1.20;;;22.50;44.90;;;;;;5019542;28;20193;-66
2022/01/21 04:05:56;;;;;;;1.00;0.90;;;22.50;44.90;;;;;;5019021;28;20182;-69
2022/01/21 04:08:23;;;;;;;1.77;1.02;;;22.60;45.00;;;;;;5018589;28;20235;-69
2022/01/21 04:11:08;;;;;;;1.85;1.00;;;22.60;44.90;;;;;;5035829;28;20208;-69
2022/01/21 04:13:38;;;;;;;1.45;1.00;;;22.50;44.90;;;;;;5052239;28;20183;-69
2022/01/21 04:16:07;;;;;;;1.38;0.98;;;22.60;45.00;;;;;;5019123;28;20277;-69
2022/01/21 04:18:34;;;;;;;1.17;0.95;;;22.50;44.90;;;;;;5035127;28;20259;-69
2022/01/21 04:21:03;;;;;;;1.00;0.90;;;22.60;45.00;;;;;;5019105;28;20213;-69
2022/01/21 04:23:30;;;;;;;1.33;1.10;;;22.60;45.00;;;;;;5018971;28;20220;-69
2022/01/21 04:25:56;;;;;;;0.88;0.88;;;22.60;45.00;;;;;;5034985;28;20216;-69
2022/01/21 04:28:22;;;;;;;1.25;1.02;;;22.60;45.00;;;;;;5035193;28;20248;-69
2022/01/21 04:30:49;;;;;;;1.00;0.90;;;22.60;45.00;;;;;;5018790;28;20204;-69
2022/01/21 04:33:16;;;;;;;1.50;1.00;;;22.60;45.00;;;;;;5018837;28;20185;-69
2022/01/21 04:35:49;;;;;;;1.48;1.15;;;22.60;45.00;;;;;;5019084;28;20183;-69
2022/01/21 04:38:18;;;;;;;1.45;1.20;;;22.50;44.90;;;;;;5034540;28;20685;-69
2022/01/21 04:40:51;;;;;;;1.05;0.95;;;22.60;45.00;;;;;;5028172;28;20190;-70
2022/01/21 04:48:46;;;;;;;1.00;0.90;;;22.50;44.90;;;;;;5014982;28;20697;-70
2022/01/21 04:51:15;;;;;;;1.67;1.00;;;22.50;44.90;;;;;;5042623;28;20179;-69
2022/01/21 04:53:44;;;;;;;1.10;0.80;;;22.50;44.90;;;;;;5018187;28;20219;-69
2022/01/21 04:56:21;;;;;;;1.15;1.00;;;22.50;44.90;;;;;;5034219;28;20185;-69
2022/01/21 04:58:48;;;;;;;1.40;1.00;;;22.60;44.90;;;;;;5018162;28;20348;-69
2022/01/21 05:01:14;;;;;;;1.48;0.88;;;22.50;44.90;;;;;;5018460;28;20193;-69
2022/01/21 05:03:42;;;;;;;1.73;1.17;;;22.50;44.90;;;;;;5018393;28;20186;-69
2022/01/21 05:06:09;;;;;;;1.35;1.10;;;22.60;45.00;;;;;;5017947;28;20190;-69
2022/01/21 05:11:08;;;;;;;1.73;1.17;;;22.50;44.90;;;;;;5024701;28;20330;-69
2022/01/21 05:13:43;;;;;;;2.17;1.00;;;22.50;44.90;;;;;;5014560;28;20179;-70
2022/01/21 05:18:55;;;;;;;3.28;1.58;;;22.50;45.50;;;;;;5014490;28;20206;-69
2022/01/21 05:21:40;;;;;;;1.20;1.10;;;22.60;45.00;;;;;;5032216;28;20194;-66
2022/01/21 05:24:11;;;;;;;1.50;1.10;;;22.50;45.50;;;;;;5014658;28;20187;-69
2022/01/21 05:26:40;;;;;;;1.48;1.00;;;22.60;45.00;;;;;;5014343;28;20183;-69
2022/01/21 05:29:09;;;;;;;1.55;1.00;;;22.60;45.00;;;;;;5032028;28;20215;-69
2022/01/21 05:31:47;;;;;;;1.20;1.10;;;22.50;45.00;;;;;;5014009;28;20183;-69
2022/01/21 05:34:22;;;;;;;1.50;1.10;;;22.60;45.10;;;;;;5014515;28;20179;-68
2022/01/21 05:37:08;;;;;;;1.50;1.30;;;22.60;45.10;;;;;;5001736;28;20187;-69
2022/01/21 05:39:45;;;;;;;2.88;1.38;;;22.60;45.10;;;;;;5032153;28;20266;-69
2022/01/21 05:42:20;;;;;;;2.17;1.20;;;22.60;45.10;;;;;;5033297;28;20235;-69
2022/01/21 05:48:03;;;;;;;1.35;1.10;;;22.50;45.00;;;;;;5034258;28;20233;-69
2022/01/21 05:50:49;;;;;;;2.67;1.15;;;22.60;45.10;;;;;;5037298;28;20224;-69
2022/01/21 05:53:32;;;;;;;1.25;1.05;;;22.60;45.10;;;;;;5020506;28;20178;-68
2022/01/21 05:56:08;;;;;;;1.55;1.15;;;22.60;45.20;;;;;;5019289;28;20201;-68
2022/01/21 05:58:45;;;;;;;2.20;1.25;;;22.60;45.10;;;;;;5035046;28;20194;-68
2022/01/21 06:01:11;;;;;;;2.58;1.15;;;22.60;45.20;;;;;;5016944;28;20185;-69
2022/01/21 06:03:37;;;;;;;2.05;1.13;;;22.60;45.20;;;;;;5034473;28;20567;-69
2022/01/21 06:06:03;;;;;;;1.98;1.23;;;22.60;45.30;;;;;;5017341;28;20182;-69
2022/01/21 06:08:29;;;;;;;2.30;1.38;;;22.60;45.20;;;;;;5017529;28;20206;-67
2022/01/21 06:10:54;;;;;;;1.67;1.00;;;22.60;45.20;;;;;;5008638;28;20187;-68
2022/01/21 06:13:20;;;;;;;2.28;1.35;;;22.60;45.20;;;;;;5030943;28;20183;-69
2022/01/21 06:15:47;;;;;;;2.25;1.30;;;22.60;45.10;;;;;;5014236;28;20183;-68
2022/01/21 06:18:13;;;;;;;2.38;1.27;;;22.60;45.20;;;;;;5013781;28;20211;-68
2022/01/21 06:20:39;;;;;;;2.45;1.15;;;22.50;45.10;;;;;;5013817;28;20228;-69
2022/01/21 06:23:04;;;;;;;1.73;1.23;;;22.60;45.10;;;;;;5013861;28;20229;-69
2022/01/21 06:25:31;;;;;;;1.98;1.30;;;22.60;45.10;;;;;;5013510;28;20187;-69
2022/01/21 06:27:57;;;;;;;1.73;1.00;;;22.50;45.00;;;;;;5013736;28;20286;-69
2022/01/21 06:30:22;;;;;;;1.50;1.10;;;22.60;45.10;;;;;;4997480;28;20187;-69
2022/01/21 06:32:48;;;;;;;1.42;1.23;;;22.50;45.00;;;;;;5031407;28;20543;-69
2022/01/21 06:35:14;;;;;;;1.85;1.40;;;22.60;45.10;;;;;;5013531;28;20178;-69
2022/01/21 06:37:40;;;;;;;1.48;1.38;;;22.60;45.10;;;;;;5031164;28;20219;-69
2022/01/21 06:40:08;;;;;;;1.75;1.30;;;22.60;45.10;;;;;;4997348;28;20286;-69
2022/01/21 06:42:34;;;;;;;2.38;1.35;;;22.50;45.00;;;;;;5041391;28;20269;-69
2022/01/21 06:45:01;;;;;;;1.77;1.30;;;22.60;45.20;;;;;;5003373;28;20282;-69
2022/01/21 06:47:29;;;;;;;2.28;1.63;;;22.60;45.20;;;;;;5035095;28;20223;-69
2022/01/21 06:49:58;;;;;;;2.25;1.55;;;22.50;45.10;;;;;;5053710;28;20654;-68
2022/01/21 06:52:26;;;;;;;2.33;1.25;;;22.50;45.00;;;;;;5036970;28;20266;-69
2022/01/21 06:54:52;;;;;;;1.50;1.10;;;22.50;45.00;;;;;;5037517;28;20182;-68
2022/01/21 06:57:18;;;;;;;1.95;1.30;;;22.50;45.00;;;;;;5055215;28;20202;-68
2022/01/21 06:59:44;;;;;;;1.98;1.20;;;22.50;45.10;;;;;;5037259;28;20206;-69
2022/01/21 07:02:09;;;;;;;2.78;1.30;;;22.50;45.00;;;;;;5037262;28;20650;-69
2022/01/21 07:04:35;;;;;;;2.90;1.30;;;22.50;45.00;;;;;;5020804;28;20240;-68
2022/01/21 07:07:01;;;;;;;1.77;1.27;;;22.50;44.90;;;;;;5020913;28;20185;-69
2022/01/21 07:09:27;;;;;;;1.77;1.23;;;22.50;44.90;;;;;;5037165;28;20289;-69
2022/01/21 07:11:54;;;;;;;1.33;1.00;;;22.50;44.90;;;;;;5036938;28;20277;-68
2022/01/21 07:14:21;;;;;;;1.98;1.20;;;22.50;44.90;;;;;;5042304;28;20207;-69
2022/01/21 07:16:47;;;;;;;1.83;1.20;;;22.50;44.90;;;;;;5034345;28;20250;-69
2022/01/21 07:19:14;;;;;;;2.13;1.27;;;22.50;44.90;;;;;;5029516;28;20211;-69
2022/01/21 07:21:41;;;;;;;2.03;1.20;;;22.50;44.90;;;;;;5037040;28;20190;-68
2022/01/21 07:24:07;;;;;;;1.45;1.20;;;22.50;44.80;;;;;;5019660;28;20281;-69
2022/01/21 07:26:33;;;;;;;2.20;1.30;;;22.50;44.90;;;;;;5043067;28;20197;-69
2022/01/21 07:28:59;;;;;;;1.63;1.30;;;22.50;44.80;;;;;;5031323;28;20211;-69
2022/01/21 07:31:26;;;;;;;1.42;1.33;;;22.50;44.80;;;;;;5036972;28;20646;-68
2022/01/21 07:33:52;;;;;;;2.55;1.50;;;22.50;44.80;;;;;;5054523;28;20654;-69
2022/01/21 07:36:18;;;;;;;2.20;1.27;;;22.50;44.80;;;;;;5020028;28;20182;-69
2022/01/21 07:38:44;;;;;;;2.15;1.40;;;22.50;44.90;;;;;;5019702;28;20216;-69
2022/01/21 07:41:09;;;;;;;2.80;1.50;;;22.50;44.90;;;;;;5012382;28;20235;-69
2022/01/21 07:43:35;;;;;;;1.33;1.10;;;22.50;44.80;;;;;;5030952;28;20180;-69
2022/01/21 07:46:01;;;;;;;2.28;1.10;;;22.50;44.80;;;;;;5016798;28;20191;-69
2022/01/21 07:48:27;;;;;;;2.20;1.20;;;22.50;44.80;;;;;;5016886;28;20198;-69
2022/01/21 07:50:53;;;;;;;2.40;1.40;;;22.50;44.90;;;;;;5004103;28;20183;-68
2022/01/21 07:53:19;;;;;;;1.58;1.30;;;22.50;44.90;;;;;;5016095;28;20274;-69
2022/01/21 07:55:45;;;;;;;1.17;1.10;;;22.50;44.80;;;;;;5016237;28;20190;-69
2022/01/21 07:58:12;;;;;;;1.92;1.35;;;22.50;44.80;;;;;;5030546;28;20226;-69
2022/01/21 08:00:38;;;;;;;1.10;1.00;;;22.50;44.90;;;;;;5039921;28;20190;-69
2022/01/21 08:03:04;;;;;;;1.52;1.20;;;22.50;44.80;;;;;;5016504;28;20187;-69
2022/01/21 08:05:33;;;;;;;1.88;1.17;;;22.50;44.80;;;;;;4999641;28;20187;-69
2022/01/21 08:08:00;;;;;;;1.08;0.90;;;22.50;44.80;;;;;;5031192;28;20243;-69
2022/01/21 08:10:27;;;;;;;1.52;1.15;;;22.50;44.80;;;;;;5025734;28;20274;-69
2022/01/21 08:12:52;;;;;;;2.58;1.30;;;22.50;44.80;;;;;;5036295;28;20706;-69
2022/01/21 08:15:18;;;;;;;2.58;1.42;;;22.50;44.80;;;;;;4999773;28;20187;-68
2022/01/21 08:17:44;;;;;;;1.77;1.20;;;22.60;44.80;;;;;;5030654;28;20210;-69
2022/01/21 08:20:10;;;;;;;4.20;1.45;;;22.60;44.80;;;;;;5010943;28;20639;-68
2022/01/21 08:22:36;;;;;;;1.70;1.13;;;22.60;44.80;;;;;;5019603;28;20188;-68
2022/01/21 08:25:03;;;;;;;2.45;1.30;;;22.60;45.40;;;;;;5035588;28;20185;-68
2022/01/21 08:27:29;;;;;;;1.92;1.33;;;22.60;44.80;;;;;;5052169;28;20207;-69
2022/01/21 08:29:56;;;;;;;2.92;1.42;;;22.60;44.90;;;;;;5019091;28;20175;-68
2022/01/21 08:32:23;;;;;;;1.48;1.30;;;22.50;44.90;;;;;;5053519;28;20174;-69
2022/01/21 08:34:49;;;;;;;1.83;1.55;;;22.50;44.80;;;;;;5019171;28;20182;-69
2022/01/21 08:37:16;;;;;;;1.98;1.38;;;22.60;44.90;;;;;;5035005;28;20174;-69
2022/01/21 08:39:43;;;;;;;2.08;1.10;;;22.60;44.90;;;;;;5012389;28;20186;-68
2022/01/21 08:42:10;;;;;;;2.25;1.23;;;22.60;44.90;;;;;;5053279;28;20196;-68
2022/01/21 08:44:36;;;;;;;2.35;1.27;;;22.60;44.90;;;;;;5018912;28;20194;-69
2022/01/21 08:47:02;;;;;;;2.30;1.30;;;22.60;44.90;;;;;;5038751;28;20189;-69
2022/01/21 08:49:28;;;;;;;1.27;1.10;;;22.60;45.00;;;;;;5030481;28;20207;-68
2022/01/21 08:51:57;;;;;;;1.67;1.13;;;22.50;44.90;;;;;;5016528;28;20176;-69
2022/01/21 08:54:24;;;;;;;1.33;1.20;;;22.60;44.90;;;;;;5052671;28;20196;-69
2022/01/21 08:56:52;;;;;;;2.13;1.23;;;22.50;44.80;;;;;;5050868;28;20186;-68
2022/01/21 08:59:19;;;;;;;1.20;1.05;;;22.60;44.90;;;;;;5018092;28;20199;-69
2022/01/21 09:01:47;;;;;;;2.00;1.45;;;22.60;44.80;;;;;;5022530;28;20215;-68
2022/01/21 09:04:13;;;;;;;1.70;1.20;;;22.60;44.80;;;;;;5014938;28;20190;-70
2022/01/21 09:06:39;;;;;;;2.58;1.30;;;22.60;44.70;;;;;;5033172;28;20183;-69
2022/01/21 09:09:05;;;;;;;2.03;1.10;;;22.60;44.70;;;;;;5025228;28;20210;-69
2022/01/21 09:11:31;;;;;;;1.70;1.25;;;22.60;44.60;;;;;;5025543;28;20267;-69
2022/01/21 09:13:58;;;;;;;1.92;1.40;;;22.60;44.70;;;;;;5020078;28;20179;-69
2022/01/21 09:16:24;;;;;;;2.70;1.33;;;22.60;44.60;;;;;;5014860;28;20270;-69
2022/01/21 09:18:54;;;;;;;2.60;1.52;;;22.60;44.60;;;;;;5014072;28;20268;-70
2022/01/21 09:21:25;;;;;;;1.83;1.42;;;22.60;44.60;;;;;;4998534;28;20187;-69
2022/01/21 09:23:53;;;;;;;2.40;1.35;;;22.60;44.60;;;;;;4998737;28;20694;-69
2022/01/21 09:26:23;;;;;;;2.05;1.40;;;22.60;44.60;;;;;;4998396;28;20194;-69
2022/01/21 09:28:50;;;;;;;2.20;1.50;;;22.60;44.60;;;;;;5044521;28;20222;-69
2022/01/21 09:31:17;;;;;;;3.35;1.88;;;22.60;44.60;;;;;;5030481;28;20183;-69
2022/01/21 09:33:44;;;;;;;1.65;1.33;;;22.60;44.60;;;;;;5034073;28;20189;-70
2022/01/21 09:36:12;;;;;;;1.70;1.00;;;22.60;44.60;;;;;;5034253;28;20232;-68
2022/01/21 09:38:39;;;;;;;1.48;1.15;;;22.60;44.70;;;;;;5050398;22;20305;-68
2022/01/21 09:41:07;;;;;;;1.20;1.02;;;22.60;44.60;;;;;;5031619;28;20195;-68
2022/01/21 09:43:34;;;;;;;2.13;1.40;;;22.60;44.60;;;;;;5028823;28;20637;-68
2022/01/21 09:46:05;;;;;;;1.10;1.00;;;22.70;44.60;;;;;;5029756;28;20183;-68
2022/01/21 09:48:37;;;;;;;2.13;1.30;;;22.70;44.70;;;;;;5029874;28;20211;-68
2022/01/21 09:51:06;;;;;;;2.58;1.48;;;22.70;44.60;;;;;;5045394;28;20184;-67
2022/01/21 09:53:35;;;;;;;2.42;1.40;;;22.70;44.60;;;;;;5013830;28;20314;-68
2022/01/21 09:56:05;;;;;;;2.92;1.45;;;22.70;44.60;;;;;;5029481;28;20187;-68
2022/01/21 09:58:32;;;;;;;1.58;1.20;;;22.60;44.50;;;;;;5028601;28;20286;-67
2022/01/21 10:01:05;;;;;;;1.80;1.13;;;22.70;44.70;;;;;;5029093;28;20172;-67
2022/01/21 10:03:33;;;;;;;2.40;1.35;;;22.70;44.60;;;;;;5029934;28;20194;-68
2022/01/21 10:06:01;;;;;;;3.38;1.10;;;22.70;44.70;;;;;;5027558;28;20180;-68
2022/01/21 10:08:29;;;;;;;2.03;1.30;;;22.70;44.70;;;;;;5029921;28;20247;-68
2022/01/21 10:10:55;;;;;;;2.03;1.20;;;22.70;44.70;;;;;;5039941;28;20207;-68
2022/01/21 10:13:22;;;;;;;2.17;1.20;;;22.70;44.70;;;;;;5020849;28;20214;-68
2022/01/21 10:15:48;;;;;;;1.45;1.30;;;22.70;44.70;;;;;;5041242;28;20194;-68
2022/01/21 10:18:18;;;;;;;1.20;1.00;;;22.70;44.70;;;;;;5017657;28;20211;-68
2022/01/21 10:21:10;;;;;;;1.10;1.00;;;22.70;44.70;;;;;;5033625;28;20278;-68
2022/01/21 10:23:40;;;;;;;1.85;1.17;;;22.70;44.60;;;;;;5032429;28;20223;-69
2022/01/21 10:26:13;;;;;;;2.78;1.20;;;22.70;44.60;;;;;;5016436;28;20241;-70
2022/01/21 10:28:43;;;;;;;2.60;1.45;;;22.70;44.60;;;;;;5049013;28;20203;-69
2022/01/21 10:31:17;;;;;;;2.22;1.23;;;22.70;44.50;;;;;;5033866;28;20198;-70
2022/01/21 10:33:51;;;;;;;2.13;1.30;;;22.70;44.50;;;;;;5029864;28;20183;-70
2022/01/21 10:36:28;;;;;;;2.78;1.38;;;22.70;44.60;;;;;;5033676;28;20199;-69
2022/01/21 10:39:11;;;;;;;3.80;1.60;;;22.70;44.60;;;;;;5050523;28;20214;-70
2022/01/21 10:41:49;;;;;;;2.00;1.30;;;22.70;44.60;;;;;;5013916;28;20192;-69
2022/01/21 10:44:19;;;;;;;3.55;1.77;;;22.70;44.50;;;;;;5031846;28;20195;-70
2022/01/21 10:47:11;;;;;;;1.38;1.10;;;22.70;44.60;;;;;;5017138;28;20187;-70
2022/01/21 10:49:40;;;;;;;1.98;1.30;;;22.70;44.50;;;;;;5033896;28;20223;-70
2022/01/21 10:52:11;;;;;;;1.42;1.20;;;22.70;44.50;;;;;;5033535;28;20263;-69
2022/01/21 10:54:47;;;;;;;1.98;1.50;;;22.70;44.40;;;;;;5016604;28;20179;-69
2022/01/21 10:57:17;;;;;;;2.45;1.33;;;22.70;44.40;;;;;;5034562;28;20199;-69
2022/01/21 11:00:10;;;;;;;1.65;1.30;;;22.70;44.40;;;;;;5033431;28;20210;-71
2022/01/21 11:02:50;;;;;;;1.70;1.20;;;22.70;44.40;;;;;;5050019;28;20191;-68
2022/01/21 11:05:27;;;;;;;1.15;0.80;;;22.80;44.50;;;;;;5031624;28;20179;-68
2022/01/21 11:08:04;;;;;;;1.70;1.30;;;22.70;44.40;;;;;;5045941;28;20203;-69
2022/01/21 11:10:36;;;;;;;1.50;1.13;;;22.70;44.30;;;;;;5033658;28;20277;-69
2022/01/21 11:13:23;;;;;;;2.83;1.20;;;22.70;44.30;;;;;;5049483;28;20237;-69
2022/01/21 11:16:09;;;;;;;1.55;1.05;;;22.70;44.30;;;;;;5049109;28;20649;-70
2022/01/21 11:18:52;;;;;;;1.45;1.25;;;22.70;44.30;;;;;;5049816;28;20250;-70
2022/01/21 11:21:18;;;;;;;2.05;1.35;;;22.70;44.30;;;;;;5049617;28;20222;-69
2022/01/21 11:23:44;;;;;;;2.28;1.20;;;22.80;44.30;;;;;;5033074;28;20230;-69
2022/01/21 11:26:15;;;;;;;1.15;0.90;;;22.80;44.30;;;;;;5032270;28;20195;-69
2022/01/21 11:28:49;;;;;;;2.25;1.15;;;22.70;44.20;;;;;;5015383;28;20215;-69
2022/01/21 11:31:28;;;;;;;1.67;0.90;;;22.80;44.30;;;;;;5049864;28;20220;-69
2022/01/21 11:33:54;;;;;;;2.13;1.45;;;22.80;44.30;;;;;;5033086;28;20202;-69
2022/01/21 11:36:20;;;;;;;1.17;1.08;;;22.80;44.20;;;;;;5015956;28;20191;-69
2022/01/21 11:38:48;;;;;;;2.72;1.30;;;22.80;44.20;;;;;;5049386;28;20225;-69
2022/01/21 11:41:16;;;;;;;1.92;1.58;;;22.80;44.30;;;;;;5033029;28;20199;-69
2022/01/21 11:43:50;;;;;;;1.33;1.17;;;22.80;44.30;;;;;;5048783;28;20196;-69
2022/01/21 11:49:11;;;;;;;1.95;1.35;;;22.90;44.40;;;;;;5049063;28;20222;-69
2022/01/21 11:51:40;;;;;;;1.30;1.20;;;22.90;44.20;;;;;;5032911;28;20194;-69
2022/01/21 11:54:16;;;;;;;1.52;1.15;;;22.90;44.40;;;;;;5015800;28;20183;-69
2022/01/21 11:56:56;;;;;;;1.58;1.05;;;22.90;44.30;;;;;;5031991;28;20201;-69
2022/01/21 11:59:34;;;;;;;1.58;1.20;;;22.90;44.30;;;;;;5049316;28;20294;-69
2022/01/21 12:02:12;;;;;;;1.67;1.10;;;22.90;44.30;;;;;;5048867;28;20206;-69
2022/01/21 12:04:51;;;;;;;1.20;1.00;;;22.90;44.20;;;;;;5030799;28;20275;-69
2022/01/21 12:07:34;;;;;;;1.90;1.20;;;22.90;44.20;;;;;;5044712;28;20175;-69
2022/01/21 12:10:26;;;;;;;1.92;1.10;;;22.90;44.10;;;;;;5012676;28;20226;-69
2022/01/21 12:13:01;;;;;;;1.40;1.20;;;22.80;44.70;;;;;;5027927;28;20189;-69
2022/01/21 12:19:17;;;;;;;1.65;1.17;;;22.90;44.10;;;;;;5048152;28;20296;-69
2022/01/21 12:21:41;;;;;;;2.80;1.40;;;22.80;44.10;;;;;;5032016;28;20195;-72
2022/01/21 12:24:09;;;;;;;1.58;1.35;;;22.90;44.10;;;;;;5047850;28;20218;-69
2022/01/21 12:26:53;;;;;;;1.98;1.02;;;22.80;44.10;;;;;;5031402;28;20183;-70
2022/01/21 12:29:22;;;;;;;1.50;1.40;;;22.90;44.10;;;;;;5048445;28;20203;-71
2022/01/21 12:32:08;;;;;;;2.25;1.20;;;22.90;44.20;;;;;;5031989;28;20202;-70
2022/01/21 12:35:08;;;;;;;1.65;1.20;;;22.90;44.20;;;;;;5048004;28;20191;-70
2022/01/21 12:38:04;;;;;;;1.35;1.10;;;22.90;44.00;;;;;;5015506;28;20199;-70
2022/01/21 12:40:36;;;;;;;1.65;1.00;;;22.90;44.20;;;;;;5032405;28;20210;-70
2022/01/21 12:43:37;;;;;;;1.20;1.10;;;22.90;44.30;;;;;;5031261;28;20201;-69
2022/01/21 12:46:07;;;;;;;1.85;1.10;;;22.90;44.20;;;;;;5027319;28;20269;-69
2022/01/21 12:48:36;;;;;;;1.90;1.63;;;22.90;44.20;;;;;;5014867;28;20223;-70
2022/01/21 12:57:00;;;;;;;3.45;1.30;;;22.80;44.30;;;;;;5044357;28;20179;-70
2022/01/21 12:59:29;;;;;;;1.20;1.10;;;22.90;44.40;;;;;;5017775;28;20712;-70
2022/01/21 13:01:57;;;;;;;1.40;1.30;;;22.90;44.40;;;;;;5034736;28;20191;-70
2022/01/21 13:04:47;;;;;;;1.30;1.20;;;22.80;44.30;;;;;;5037240;28;20206;-69
2022/01/21 13:07:24;;;;;;;1.35;1.25;;;22.90;44.30;;;;;;5031403;28;20191;-68
2022/01/21 13:10:08;;;;;;;2.35;1.35;;;22.90;44.30;;;;;;5026465;28;20213;-69
2022/01/21 13:13:00;;;;;;;2.28;1.20;;;22.90;44.30;;;;;;5032397;28;20194;-70
2022/01/21 13:15:48;;;;;;;2.03;1.58;;;22.90;44.30;;;;;;5046925;28;20191;-69
2022/01/21 13:18:26;;;;;;;2.10;1.23;;;22.80;44.30;;;;;;5005395;28;20306;-69
2022/01/21 13:20:55;;;;;;;2.10;1.25;;;22.80;44.20;;;;;;5047924;28;20187;-69
2022/01/21 13:23:43;;;;;;;1.65;1.30;;;22.80;44.20;;;;;;5047567;28;20198;-69
2022/01/21 13:26:25;;;;;;;1.98;1.55;;;22.80;44.20;;;;;;5046338;28;20210;-69
2022/01/21 13:29:10;;;;;;;1.92;1.50;;;22.80;44.20;;;;;;5014475;28;20589;-69
2022/01/21 13:31:58;;;;;;;1.88;1.48;;;22.80;44.20;;;;;;5045685;28;20195;-70
2022/01/21 13:34:40;;;;;;;1.63;1.52;;;22.80;44.10;;;;;;5047028;28;20183;-69
2022/01/21 13:37:09;;;;;;;2.00;1.42;;;22.80;44.20;;;;;;5031922;28;20183;-69
2022/01/21 13:39:43;;;;;;;1.10;1.00;;;22.80;44.20;;;;;;5047560;28;20707;-71
2022/01/21 13:42:11;;;;;;;2.13;1.30;;;22.80;44.10;;;;;;5014154;28;20191;-71
2022/01/21 13:44:53;;;;;;;2.42;1.38;;;22.80;44.10;;;;;;5046404;28;20203;-69
2022/01/21 13:47:39;;;;;;;1.27;1.17;;;22.80;44.10;;;;;;5030917;28;20695;-71
2022/01/21 13:50:05;;;;;;;2.47;1.35;;;22.80;44.00;;;;;;5047145;28;20207;-71
2022/01/21 13:52:43;;;;;;;3.13;1.55;;;22.90;44.80;;;;;;5046874;28;20241;-70
2022/01/21 13:55:34;;;;;;;1.77;1.40;;;22.80;44.20;;;;;;5038023;28;20206;-70
2022/01/21 13:58:07;;;;;;;2.13;1.25;;;22.80;44.20;;;;;;5004581;28;20211;-70
2022/01/21 14:00:37;;;;;;;1.67;1.30;;;22.80;44.20;;;;;;5011207;28;20188;-71
2022/01/21 14:03:22;;;;;;;1.52;1.35;;;22.80;44.10;;;;;;5014090;28;20230;-70